Tuesday, September 25, 2018, 10:56 PM GMT
Back to Local

CWSS, St. Stephen, N. B.

Location: , , Canada Lat: 45.217
Local Time: 10:56 PM GMT (22:56 GMT) Lon: -67.25
Time Zone: GMT Elev: 85 ft

Show me the last for .
Show Coded

Time T Td Feel RH Dir Speed Gust Alt SLP Vis Weather Sky Remarks
2018-09-25 22:00 56 48 - 75 150° 9 - - 30.45 0 None
2018-09-25 21:00 57 47 - 69 160° 7 - - 30.48 0 None
2018-09-25 20:00 58 47 - 66 160° 7 - - 30.51 0 None
2018-09-25 19:00 58 46 - 64 160° 10 20 - 30.53 0 Peak wind: 20 mph (18 kts) from 160° at 22 min
2018-09-25 18:00 57 44 - 63 160° 12 20 - 30.56 0 Peak wind: 23 mph (20 kts) from 150° at 40 min
2018-09-25 17:00 58 43 - 57 160° 8 - - 30.58 0 Peak wind: 20 mph (18 kts) from 160° at 04 min
2018-09-25 16:00 60 42 - 50 150° 12 22 - 30.60 0 Peak wind: 21 mph (19 kts) from 170° at 56 min
2018-09-25 15:00 58 39 - 49 150° 9 18 - 30.63 0 None
2018-09-25 14:00 55 42 - 63 130° 3 - - 30.65 0 None
2018-09-25 13:00 43 37 - 78 80° 1 - - 30.66 0 None
2018-09-25 12:00 33 32 - 94 - Calm - - 30.66 0 None
2018-09-25 11:00 28 27 - 95 - Calm - - 30.66 0 None
2018-09-25 10:00 27 26 - 95 - Calm - - 30.67 0 None
2018-09-25 09:00 29 26 - 88 230° 1 - - 30.67 0 None
2018-09-25 08:00 27 26 - 95 - Calm - - 30.67 0 None
2018-09-25 07:00 28 26 - 94 - Calm - - 30.67 0 None
2018-09-25 06:00 28 27 - 94 190° 1 - - 30.67 0 None
2018-09-25 05:00 29 28 - 94 10° 2 - - 30.68 0 None
2018-09-25 04:00 30 28 - 94 - Calm - - 30.68 0 None
2018-09-25 03:00 31 29 - 92 350° 1 - - 30.69 0 None
2018-09-25 02:00 32 30 - 93 - Calm - - 30.67 0 None
2018-09-25 01:00 34 31 - 88 120° 1 - - 30.66 0 None
2018-09-25 00:00 38 31 - 77 - Calm - - 30.66 0 None
2018-09-24 23:00 42 32 - 65 - Calm - - 30.64 0 None

Support USWX by starting your Amazon purchase here.